• Join FlightAware (Why Join?)
  • Login
  • US Flag 
07:36PM EDT


 

Airport Tracker/Info


-or-


 

Live Flight TrackerFlight Track Log ✈ N3066W ✈ 13-Aug-2013 ✈ KONT - KCCR

Flight Track Log - Related Links

Times and Time Zones

All times are in EDT time to prevent confusion due to time zone crossing. See the N3066W flight status page for this flight to view local times or setup timezone preferences in your user account.

Time Position Orientation Groundspeed Altitude Reporting Facility
EDT Latitude Longitude Course Direction KTS MPH feet Rate Location/Type
05:16PM 34.0500 -117.6667 270° West 130 150 3,100  Level Southern California TRACON
05:17PM 34.0500 -117.7000 270° West 148 170 4,400 1,200 Climbing Southern California TRACON
05:18PM 34.0667 -117.7500 292° West 161 185 5,500 1,080 Climbing Southern California TRACON
05:19PM 34.0833 -117.8167 287° West 174 200 6,600 1,080 Climbing Southern California TRACON
05:20PM 34.1000 -117.8667 292° West 175 201 7,600 1,080 Climbing Southern California TRACON
05:21PM 34.0722 -118.0276 301° West  Level FlightAware Approximate
05:21PM 34.1167 -117.9167 292° West 177 204 8,800  Level Southern California TRACON
05:22PM 34.1333 -117.9667 292° West 180 207 9,800 1,080 Climbing Southern California TRACON
05:23PM 34.1450 -117.9983 294° West 179 206 10,400 960 Climbing Los Angeles Center
05:24PM 34.1728 -118.0458 305° West 179 206 11,400 780 Climbing Los Angeles Center
05:25PM 34.2069 -118.0922 312° West 184 212 12,100 240 Climbing Los Angeles Center
05:26PM 34.2483 -118.1425 315° West 209 241 12,000  Descending Los Angeles Center
05:27PM 34.3042 -118.2069 316° Northwest 232 267 12,100  Climbing Los Angeles Center
05:28PM 34.3581 -118.2736 314° West 232 267 12,100  Level Los Angeles Center
05:29PM 34.4022 -118.3303 313° West 234 269 12,100  Level Los Angeles Center
05:30PM 34.4531 -118.3758 324° Northwest 225 259 12,100 -60 Level Los Angeles Center
05:31PM 34.5067 -118.4197 326° Northwest 233 268 12,000  Descending Los Angeles Center
05:32PM 34.5578 -118.4678 322° Northwest 234 269 12,100 360 Climbing Los Angeles Center
05:33PM 34.6175 -118.5219 323° Northwest 225 259 12,800 780 Climbing Los Angeles Center
05:34PM 34.6617 -118.5611 324° Northwest 202 232 13,800 840 Climbing Los Angeles Center
05:35PM 34.7056 -118.5961 327° Northwest 191 220 14,600 720 Climbing Los Angeles Center
05:36PM 34.7544 -118.6219 337° Northwest 195 224 15,300 720 Climbing Los Angeles Center
05:37PM 34.7983 -118.6586 326° Northwest 192 221 16,100 360 Climbing Los Angeles Center
05:39PM 34.8589 -118.7050 328° Northwest 219 252 16,100  Level Los Angeles Center
05:40PM 34.9078 -118.7389 330° Northwest 226 260 16,100  Level Los Angeles Center
05:41PM 34.9664 -118.7739 334° Northwest 233 268 16,100  Level Los Angeles Center
05:42PM 35.0331 -118.8222 329° Northwest 233 268 16,100 -60 Level Los Angeles Center
05:43PM 35.0906 -118.8628 330° Northwest 237 273 16,000 -60 Descending Los Angeles Center
05:44PM 35.1367 -118.8944 331° Northwest 238 274 16,000  Level Los Angeles Center
05:45PM 35.2067 -118.9425 331° Northwest 243 280 16,000  Level Los Angeles Center
05:46PM 35.2647 -118.9828 330° Northwest 240 276 16,000  Level Los Angeles Center
05:47PM 35.3322 -119.0314 330° Northwest 236 272 16,000  Level Los Angeles Center
05:48PM 35.3783 -119.0636 330° Northwest 239 275 16,000  Level Los Angeles Center
05:49PM 35.4469 -119.1122 330° Northwest 237 273 16,000  Level Los Angeles Center
05:50PM 35.5053 -119.1531 330° Northwest 240 276 16,000  Level Los Angeles Center
05:51PM 35.5506 -119.1861 329° Northwest 239 275 16,000  Level Los Angeles Center
05:52PM 35.6200 -119.2361 330° Northwest 242 278 16,000  Level Los Angeles Center
05:53PM 35.6889 -119.2844 330° Northwest 239 275 16,000  Level Los Angeles Center
05:54PM 35.7469 -119.3267 329° Northwest 241 277 16,000  Level Los Angeles Center
05:55PM 35.8058 -119.3675 331° Northwest 242 278 16,000  Level Los Angeles Center
05:56PM 35.8631 -119.4089 330° Northwest 243 280 16,000  Level Oakland Center
05:57PM 35.9197 -119.4544 327° Northwest 244 281 16,000  Level Oakland Center
05:58PM 35.9708 -119.5072 320° Northwest 241 277 16,000  Level Oakland Center
05:59PM 36.0328 -119.5686 321° Northwest 240 276 16,000  Level Oakland Center
06:00PM 36.0847 -119.6200 321° Northwest 240 276 16,000  Level Oakland Center
06:01PM 36.1361 -119.6722 321° Northwest 242 278 16,000  Level Oakland Center
06:02PM 36.1886 -119.7244 321° Northwest 245 282 16,000  Level Oakland Center
06:03PM 36.2394 -119.7764 321° Northwest 240 276 16,000  Level Oakland Center
06:04PM 36.2911 -119.8286 321° Northwest 242 278 16,000  Level Oakland Center
06:05PM 36.3436 -119.8811 321° Northwest 243 280 16,000  Level Oakland Center
06:06PM 36.3953 -119.9347 320° Northwest 244 281 16,000  Level Oakland Center
06:07PM 36.4583 -119.9981 321° Northwest 243 280 16,000  Level Oakland Center
06:08PM 36.5097 -120.0514 320° Northwest 242 278 16,000  Level Oakland Center
06:09PM 36.5608 -120.1047 320° Northwest 241 277 16,000  Level Oakland Center
06:10PM 36.6119 -120.1572 321° Northwest 239 275 16,000  Level Oakland Center
06:11PM 36.6639 -120.2092 321° Northwest 239 275 16,000  Level Oakland Center
06:12PM 36.7139 -120.2628 319° Northwest 237 273 16,000  Level Oakland Center
06:14PM 36.7656 -120.3150 321° Northwest 239 275 16,000  Level Oakland Center
06:15PM 36.8137 -120.3634 321° Northwest  Level FlightAware Approximate
06:16PM 36.8719 -120.4253 321° Northwest 239 275 16,000  Level Oakland Center
06:17PM 36.9225 -120.4794 319° Northwest 238 274 16,000  Level Oakland Center
06:18PM 36.9742 -120.5328 320° Northwest 240 276 16,000 -480 Level Oakland Center
06:19PM 37.0375 -120.5997 320° Northwest 251 289 15,100 -780 Descending Oakland Center
06:20PM 37.0944 -120.6592 320° Northwest 262 302 14,500 -480 Descending Oakland Center
06:21PM 37.1494 -120.7161 320° Northwest 257 296 14,200 -420 Descending Oakland Center
06:22PM 37.2039 -120.7731 320° Northwest 256 295 13,700 -540 Descending Oakland Center
06:23PM 37.2600 -120.8300 321° Northwest 258 297 13,200 -480 Descending Oakland Center
06:24PM 37.3161 -120.8872 321° Northwest 259 298 12,800 -480 Descending Oakland Center
06:25PM 37.3833 -120.9667 317° Northwest 256 295 12,200 -480 Descending Northern Cal TRACON
06:26PM 37.4500 -121.0167 329° Northwest 256 295 11,800 -420 Descending Northern Cal TRACON
06:27PM 37.5000 -121.0833 313° West 258 297 11,400 -420 Descending Northern Cal TRACON
06:28PM 37.5500 -121.1333 322° Northwest 255 293 11,000 -420 Descending Northern Cal TRACON
06:29PM 37.6167 -121.2000 322° Northwest 253 291 10,600 -360 Descending Northern Cal TRACON
06:30PM 37.6667 -121.2500 322° Northwest 249 287 10,300 -540 Descending Northern Cal TRACON
06:31PM 37.7167 -121.3000 322° Northwest 238 274 9,600 -1,020 Descending Northern Cal TRACON
06:32PM 37.7667 -121.3500 322° Northwest 240 276 8,300 -1,260 Descending Northern Cal TRACON
06:33PM 37.8167 -121.4000 322° Northwest 238 274 7,100 -900 Descending Northern Cal TRACON
06:34PM 37.8667 -121.4667 314° West 221 254 6,600 -540 Descending Northern Cal TRACON
06:35PM 37.8989 -121.5058 316° Northwest 221 254 6,100 -300 Descending Oakland Center
06:36PM 37.9414 -121.5561 317° Northwest 218 251 6,000  Descending Oakland Center
06:37PM 37.9908 -121.6053 322° Northwest 219 252 6,100  Climbing Oakland Center
06:38PM 38.0308 -121.6578 314° West 215 247 6,000  Descending Oakland Center
06:39PM 38.0500 -121.7436 286° West 218 251 6,100 -480 Climbing Oakland Center
06:40PM 38.0439 -121.8150 264° West 208 239 5,100 -1,080 Descending Oakland Center
06:41PM 38.0281 -121.8828 254° West 202 232 4,000 -1,020 Descending Oakland Center
06:42PM 38.0178 -121.9425 258° West 182 209 3,100 -1,080 Descending Oakland Center
06:43PM 38.0019 -121.9914 248° West 159 183 1,800 -1,080 Descending Oakland Center
06:44PM 37.9761 -122.0247 225° Southwest 137 158 1,000 -600 Descending Oakland Center
06:45PM 37.9619 -122.0633 245° Southwest 135 155 700 -300 Descending Oakland Center
06:47PM 37.9833 -122.0500 North  Level FlightAware Approximate